Terminal Aerodrome Forecast
Issued by NWS Key West, FL

Home | Current Version | Previous Version | Text Only | Print | Product List | Glossary On
Versions: 1 2 3 4 5 6 7 8 9 10 11 12 13 14 15 16 17 18 19 20 21 22 23 24 25 26 27 28 29 30 31 32 33 34 35 36 37 38 39 40 41 42 43 44 45
000
FTUS42 KKEY 300210 AAA
TAFEYW
TAF AMD
KEYW 300210Z 3002/3024 08012G17KT P6SM VCSH SCT025
      TEMPO 3002/3003 07020G30KT 1SM +TSRA BKN020CB
     FM300900 14013G18KT P6SM VCSH SCT020 BKN050 OVC150 PROB30
      3011/3017 15020G30KT 1SM +TSRA BKN015CB OVC050=

USA.gov is the U.S. government's official web portal to all federal, state and local government web resources and services.